createdAt,value
2018-03-20T00:01:24.512Z,15.60
2018-03-20T00:03:52.294Z,19.65
2018-03-20T00:06:18.510Z,13.45
2018-03-20T00:08:44.798Z,13.77
2018-03-20T00:11:11.791Z,11.00
2018-03-20T00:13:39.480Z,12.73
2018-03-20T00:16:06.680Z,14.18
2018-03-20T00:18:32.915Z,15.18
2018-03-20T00:20:59.118Z,15.23
2018-03-20T00:23:26.461Z,14.02
2018-03-20T00:25:53.577Z,16.87
2018-03-20T00:28:20.121Z,13.98
2018-03-20T00:30:46.387Z,13.07
2018-03-20T00:33:13.435Z,11.35
2018-03-20T00:35:41.219Z,16.60
2018-03-20T00:38:08.186Z,12.52
2018-03-20T00:40:34.714Z,11.68
2018-03-20T00:43:00.863Z,9.23
2018-03-20T00:45:28.189Z,10.73
2018-03-20T00:47:54.387Z,14.93
2018-03-20T00:50:21.410Z,9.27
2018-03-20T00:52:48.327Z,12.82
2018-03-20T00:55:15.195Z,13.88
2018-03-20T00:57:41.451Z,11.85
2018-03-20T01:00:07.682Z,13.38
2018-03-20T01:02:34.939Z,14.55
2018-03-20T01:05:02.050Z,12.43
2018-03-20T01:07:29.063Z,14.77
2018-03-20T01:09:56.970Z,13.15
2018-03-20T01:12:23.185Z,9.35
2018-03-20T01:14:50.506Z,14.45
2018-03-20T01:17:17.497Z,14.38
2018-03-20T01:19:43.768Z,18.60
2018-03-20T01:22:10.702Z,13.20
2018-03-20T01:24:38.390Z,19.52
2018-03-20T01:27:05.933Z,16.23
2018-03-20T01:29:33.287Z,12.52
2018-03-20T01:31:59.484Z,16.80
2018-03-20T01:34:25.690Z,13.25
2018-03-20T01:36:51.909Z,10.30
2018-03-20T01:39:18.094Z,16.37
2018-03-20T01:41:45.291Z,11.43
2018-03-20T01:44:11.855Z,11.63
2018-03-20T01:46:38.091Z,12.65
2018-03-20T01:49:05.231Z,13.18
2018-03-20T01:51:31.435Z,15.60
2018-03-20T01:53:57.875Z,15.80
2018-03-20T01:56:24.089Z,13.27
2018-03-20T01:58:51.520Z,12.27
2018-03-20T02:01:18.471Z,16.27
2018-03-20T02:03:45.454Z,11.43
2018-03-20T02:06:12.383Z,12.10
2018-03-20T02:08:38.934Z,11.57
2018-03-20T02:11:05.299Z,16.60
2018-03-20T02:13:32.711Z,16.45
2018-03-20T02:15:58.976Z,12.70
2018-03-20T02:18:25.932Z,12.48
2018-03-20T02:20:52.200Z,13.62
2018-03-20T02:23:18.465Z,11.93
2018-03-20T02:25:44.963Z,15.25
2018-03-20T02:28:11.611Z,11.63
2018-03-20T02:30:38.801Z,14.15
2018-03-20T02:33:05.013Z,13.05
2018-03-20T02:35:31.266Z,9.90
2018-03-20T02:37:57.852Z,11.55
2018-03-20T02:40:25.251Z,9.75
2018-03-20T02:42:51.482Z,10.88
2018-03-20T02:45:17.827Z,12.13
2018-03-20T02:47:44.306Z,10.68
2018-03-20T02:50:10.582Z,12.88
2018-03-20T02:52:38.535Z,12.90
2018-03-20T02:55:06.206Z,8.57
2018-03-20T02:57:32.503Z,14.77
2018-03-20T02:59:59.459Z,12.43
2018-03-20T03:02:25.667Z,13.18
2018-03-20T03:04:52.404Z,10.88
2018-03-20T03:07:20.195Z,10.68
2018-03-20T03:09:46.427Z,11.23
2018-03-20T03:12:12.659Z,14.05
2018-03-20T03:14:38.893Z,13.95
2018-03-20T03:17:05.162Z,13.52
2018-03-20T03:19:31.441Z,9.57
2018-03-20T03:21:57.662Z,13.05
2018-03-20T03:24:24.584Z,15.20
2018-03-20T03:26:50.807Z,13.75
2018-03-20T03:29:17.051Z,14.65
2018-03-20T03:31:46.106Z,11.43
2018-03-20T03:34:13.270Z,12.05
2018-03-20T03:36:39.511Z,12.80
2018-03-20T03:39:05.732Z,15.15
2018-03-20T03:41:32.565Z,14.15
2018-03-20T03:43:59.711Z,12.68
2018-03-20T03:46:25.919Z,12.88
2018-03-20T03:48:52.158Z,10.52
2018-03-20T03:51:18.311Z,12.60
2018-03-20T03:53:45.524Z,11.50
2018-03-20T03:56:11.719Z,12.15
2018-03-20T03:58:38.696Z,12.85
2018-03-20T04:01:05.178Z,18.55
2018-03-20T04:03:31.395Z,10.82
2018-03-20T04:05:57.622Z,14.45
2018-03-20T04:08:24.607Z,14.23
2018-03-20T04:10:52.382Z,17.52
2018-03-20T04:13:18.707Z,14.00
2018-03-20T04:15:45.676Z,10.45
2018-03-20T04:18:13.480Z,18.70
2018-03-20T04:20:39.677Z,16.48
2018-03-20T04:23:06.272Z,14.18
2018-03-20T04:25:33.284Z,13.80
2018-03-20T04:27:59.686Z,17.15
2018-03-20T04:30:26.275Z,14.95
2018-03-20T04:32:52.541Z,11.07
2018-03-20T04:35:18.786Z,14.90
2018-03-20T04:37:44.975Z,15.73
2018-03-20T04:40:11.150Z,11.35
2018-03-20T04:42:39.050Z,15.98
2018-03-20T04:45:05.259Z,16.27
2018-03-20T04:47:31.489Z,14.57
2018-03-20T04:49:57.707Z,14.30
2018-03-20T04:52:24.163Z,17.62
2018-03-20T04:54:50.365Z,13.02
2018-03-20T04:57:16.593Z,13.65
2018-03-20T04:59:42.775Z,21.55
2018-03-20T05:02:08.996Z,12.45
2018-03-20T05:04:35.193Z,12.88
2018-03-20T05:07:01.433Z,11.52
2018-03-20T05:09:27.628Z,13.77
2018-03-20T05:11:53.844Z,8.77
2018-03-20T05:14:20.052Z,12.82
2018-03-20T05:16:47.540Z,13.52
2018-03-20T05:22:21.464Z,15.60
2018-03-20T05:24:48.418Z,13.50
2018-03-20T05:27:14.649Z,14.35
2018-03-20T05:29:40.852Z,10.85
2018-03-20T05:32:08.329Z,11.77
2018-03-20T05:34:34.630Z,11.93
2018-03-20T05:37:00.849Z,14.75
2018-03-20T05:39:27.141Z,13.20
2018-03-20T05:41:53.467Z,15.77
2018-03-20T05:44:19.704Z,14.27
2018-03-20T05:47:03.817Z,14.90
2018-03-20T05:49:36.352Z,16.37
2018-03-20T05:52:03.440Z,15.02
2018-03-20T05:54:30.305Z,17.00
2018-03-20T05:56:56.511Z,14.48
2018-03-20T05:59:23.491Z,14.18
2018-03-20T06:01:49.823Z,12.63
2018-03-20T06:04:16.026Z,8.77
2018-03-20T06:06:42.213Z,11.68
2018-03-20T06:09:08.423Z,12.30
2018-03-20T06:11:34.596Z,13.48
2018-03-20T06:14:02.576Z,12.80
2018-03-20T06:16:29.814Z,13.18
2018-03-20T06:18:57.627Z,8.68
2018-03-20T06:21:24.867Z,10.77
2018-03-20T06:23:52.304Z,7.97
2018-03-20T06:26:21.744Z,14.68
2018-03-20T06:28:48.016Z,20.00
2018-03-20T06:31:14.813Z,10.75
2018-03-20T06:33:41.090Z,9.13
2018-03-20T06:36:08.845Z,11.05
2018-03-20T06:38:35.491Z,8.55
2018-03-20T06:41:01.782Z,13.02
2018-03-20T06:43:28.046Z,16.45
2018-03-20T06:45:56.449Z,11.23
2018-03-20T06:48:23.425Z,8.23
2018-03-20T06:50:49.658Z,11.10
2018-03-20T06:53:17.158Z,7.57
2018-03-20T06:55:43.784Z,16.05
2018-03-20T06:58:10.395Z,11.23
2018-03-20T07:00:36.666Z,15.65
2018-03-20T07:03:02.893Z,10.57
2018-03-20T07:05:29.989Z,10.65
2018-03-20T07:07:56.262Z,15.05
2018-03-20T07:10:23.290Z,11.98
2018-03-20T07:12:50.200Z,11.38
2018-03-20T07:15:16.437Z,12.68
2018-03-20T07:17:43.549Z,11.18
2018-03-20T07:20:09.799Z,17.30
2018-03-20T07:22:36.869Z,11.50
2018-03-20T07:25:03.062Z,9.25
2018-03-20T07:27:30.761Z,14.65
2018-03-20T07:29:56.968Z,11.90
2018-03-20T07:32:23.963Z,12.32
2018-03-20T07:34:50.192Z,10.98
2018-03-20T07:37:16.412Z,12.30
2018-03-20T07:39:42.614Z,13.85
2018-03-20T07:42:09.580Z,12.73
2018-03-20T07:44:35.816Z,11.60
2018-03-20T07:47:02.031Z,10.35
2018-03-20T07:49:28.363Z,12.45
2018-03-20T07:51:54.575Z,12.52
2018-03-20T07:54:21.912Z,14.05
2018-03-20T07:56:49.691Z,15.57
2018-03-20T07:59:16.709Z,13.23
2018-03-20T08:01:43.260Z,13.80
2018-03-20T08:04:09.487Z,10.00
2018-03-20T08:06:36.449Z,21.67
2018-03-20T08:09:03.475Z,10.13
2018-03-20T08:11:29.652Z,11.65
2018-03-20T08:13:55.931Z,12.95
2018-03-20T08:16:22.142Z,12.27
2018-03-20T08:18:48.705Z,16.23
2018-03-20T08:21:15.083Z,15.40
2018-03-20T08:23:41.284Z,8.73
2018-03-20T08:26:09.244Z,11.98
2018-03-20T08:28:36.243Z,10.18
2018-03-20T08:31:02.570Z,13.18
2018-03-20T08:33:28.785Z,11.48
2018-03-20T08:35:55.678Z,12.63
2018-03-20T08:38:23.778Z,10.80
2018-03-20T08:40:51.150Z,10.30
2018-03-20T08:43:17.345Z,12.27
2018-03-20T08:45:44.475Z,7.65
2018-03-20T08:48:10.691Z,11.05
2018-03-20T08:50:36.923Z,16.08
2018-03-20T08:53:03.230Z,11.55
2018-03-20T08:55:29.496Z,9.75
2018-03-20T08:57:55.720Z,13.85
2018-03-20T09:00:21.915Z,12.55
2018-03-20T09:02:49.454Z,13.40
2018-03-20T09:05:16.715Z,12.65
2018-03-20T09:07:42.977Z,12.50
2018-03-20T09:10:10.193Z,13.15
2018-03-20T09:12:36.388Z,10.95
2018-03-20T09:15:02.671Z,10.98
2018-03-20T09:17:28.926Z,11.35
2018-03-20T09:19:55.183Z,16.08
2018-03-20T09:22:21.482Z,12.60
2018-03-20T09:24:47.719Z,11.63
2018-03-20T09:27:14.767Z,13.77
2018-03-20T09:29:41.008Z,11.87
2018-03-20T09:32:08.524Z,15.03
2018-03-20T09:34:34.691Z,18.10
2018-03-20T09:37:01.515Z,12.57
2018-03-20T09:39:27.750Z,12.90
2018-03-20T09:41:53.973Z,18.23
2018-03-20T09:44:21.083Z,17.20
2018-03-20T09:46:47.343Z,14.50
2018-03-20T09:49:14.289Z,10.80
2018-03-20T09:51:40.484Z,10.43
2018-03-20T09:54:07.512Z,11.20
2018-03-20T09:56:34.494Z,11.43
2018-03-20T09:59:00.723Z,15.03
2018-03-20T10:01:27.805Z,13.77
2018-03-20T10:03:54.116Z,14.37
2018-03-20T10:06:20.345Z,17.23
2018-03-20T10:08:47.079Z,20.63
2018-03-20T10:11:13.313Z,14.97
2018-03-20T10:13:40.463Z,20.67
2018-03-20T10:16:06.761Z,21.03
2018-03-20T10:18:33.727Z,19.43
2018-03-20T10:20:59.965Z,18.80
2018-03-20T10:23:26.221Z,18.00
2018-03-20T10:25:52.478Z,21.90
2018-03-20T10:28:19.479Z,26.60
2018-03-20T10:30:45.751Z,20.20
2018-03-20T10:33:11.966Z,24.07
2018-03-20T10:35:38.606Z,21.57
2018-03-20T10:38:04.850Z,30.10
2018-03-20T10:40:31.163Z,25.90
2018-03-20T10:42:57.422Z,22.83
2018-03-20T10:45:24.701Z,22.60
2018-03-20T10:47:50.932Z,23.07
2018-03-20T10:50:17.110Z,25.97
2018-03-20T10:52:43.380Z,25.87
2018-03-20T10:55:10.470Z,23.90
2018-03-20T10:57:37.462Z,40.47
2018-03-20T11:00:04.514Z,27.30
2018-03-20T11:02:32.430Z,29.73
2018-03-20T11:04:59.556Z,25.00
2018-03-20T11:07:25.808Z,23.43
2018-03-20T11:09:51.994Z,26.43
2018-03-20T11:12:19.002Z,23.93
2018-03-20T11:14:45.175Z,25.03
2018-03-20T11:17:12.134Z,25.87
2018-03-20T11:19:41.305Z,24.63
2018-03-20T11:22:07.683Z,25.23
2018-03-20T11:24:33.872Z,30.47
2018-03-20T11:27:00.943Z,24.00
2018-03-20T11:29:27.181Z,23.80
2018-03-20T11:31:53.404Z,25.47
2018-03-20T11:34:19.659Z,28.80
2018-03-20T11:36:45.924Z,29.37
2018-03-20T11:39:12.873Z,23.70
2018-03-20T11:41:39.811Z,26.97
2018-03-20T11:44:06.073Z,31.40
2018-03-20T11:46:33.053Z,30.93
2018-03-20T11:48:59.255Z,25.20
2018-03-20T11:51:25.453Z,28.10
2018-03-20T11:53:52.635Z,26.27
2018-03-20T11:56:18.914Z,29.30
2018-03-20T11:58:45.774Z,36.30
2018-03-20T12:01:11.974Z,26.00
2018-03-20T12:03:39.041Z,26.47
2018-03-20T12:06:06.157Z,24.50
2018-03-20T12:08:44.742Z,21.83
2018-03-20T12:11:11.589Z,21.83
2018-03-20T12:13:38.542Z,23.00
2018-03-20T12:16:04.849Z,23.20
2018-03-20T12:18:31.776Z,22.77
2018-03-20T12:20:58.012Z,27.70
2018-03-20T12:23:24.579Z,31.43
2018-03-20T12:25:51.536Z,26.40
2018-03-20T12:38:03.842Z,29.90
2018-03-20T12:40:30.070Z,27.07
2018-03-20T12:42:56.294Z,26.50
2018-03-20T12:45:23.223Z,27.57
2018-03-20T13:00:50.082Z,34.03
2018-03-20T13:03:16.345Z,34.20
2018-03-20T13:05:43.303Z,29.27
2018-03-20T13:08:09.533Z,28.70
2018-03-20T13:10:35.802Z,35.25
2018-03-20T13:13:02.084Z,29.60
2018-03-20T13:15:29.033Z,28.00
2018-03-20T13:17:56.011Z,27.02
2018-03-20T13:20:23.372Z,27.70
2018-03-20T13:22:49.788Z,25.45
2018-03-20T13:25:16.009Z,23.62
2018-03-20T13:27:42.237Z,26.80
2018-03-20T13:30:08.513Z,19.25
2018-03-20T13:32:34.722Z,26.77
2018-03-20T13:35:00.943Z,22.30
2018-03-20T13:37:27.184Z,21.60
2018-03-20T13:39:53.516Z,25.93
2018-03-20T13:42:19.713Z,25.47
2018-03-20T13:44:46.781Z,22.47
2018-03-20T13:47:13.065Z,25.20
2018-03-20T13:49:40.811Z,19.90
2018-03-20T13:52:07.066Z,24.77
2018-03-20T13:54:33.320Z,20.53
2018-03-20T13:57:00.222Z,18.40
2018-03-20T13:59:26.449Z,20.80
2018-03-20T14:11:37.760Z,16.47
2018-03-20T14:14:03.988Z,14.90
2018-03-20T14:16:31.224Z,14.90
2018-03-20T14:18:58.172Z,12.70
2018-03-20T14:21:25.118Z,10.50
2018-03-20T14:23:51.356Z,16.97
2018-03-20T14:26:17.614Z,17.07
2018-03-20T14:28:45.150Z,9.90
2018-03-20T14:31:11.361Z,10.30
2018-03-20T14:33:38.263Z,11.63
2018-03-20T14:36:05.248Z,12.50
2018-03-20T14:38:32.221Z,9.87
2018-03-20T14:40:58.451Z,11.60
2018-03-20T14:43:24.713Z,13.73
2018-03-20T14:45:51.851Z,12.67
2018-03-20T14:48:18.151Z,13.60
2018-03-20T14:50:44.393Z,14.97
2018-03-20T14:53:11.231Z,12.77
2018-03-20T14:55:38.884Z,12.87
2018-03-20T14:58:05.172Z,10.20
2018-03-20T15:00:31.388Z,18.07
2018-03-20T15:02:57.615Z,10.43
2018-03-20T15:05:23.883Z,12.50
2018-03-20T15:07:50.864Z,12.70
2018-03-20T15:10:18.258Z,13.77
2018-03-20T15:12:44.441Z,9.40
2018-03-20T15:15:10.639Z,13.63
2018-03-20T15:17:37.655Z,12.10
2018-03-20T15:20:03.907Z,12.63
2018-03-20T15:22:30.164Z,10.23
2018-03-20T15:24:56.463Z,15.17
2018-03-20T15:27:23.694Z,9.53
2018-03-20T15:29:49.913Z,13.43
2018-03-20T15:32:16.121Z,9.73
2018-03-20T15:34:42.431Z,7.87
2018-03-20T15:37:12.047Z,8.93
2018-03-20T15:39:38.287Z,9.00
2018-03-20T15:42:05.374Z,12.63
2018-03-20T15:54:17.343Z,7.80
2018-03-20T15:56:44.113Z,9.07
2018-03-20T15:59:10.339Z,8.13
2018-03-20T16:01:37.291Z,7.30
2018-03-20T16:04:03.647Z,5.70
2018-03-20T16:06:29.923Z,6.50
2018-03-20T16:08:56.334Z,9.43
2018-03-20T16:11:23.191Z,8.30
2018-03-20T16:13:51.110Z,11.77
2018-03-20T16:16:17.974Z,7.40
2018-03-20T16:18:44.207Z,12.63
2018-03-20T16:21:10.564Z,8.63
2018-03-20T16:23:37.425Z,5.27
2018-03-20T16:26:03.694Z,7.53
2018-03-20T16:28:30.681Z,3.67
2018-03-20T16:30:56.897Z,4.90
2018-03-20T16:33:23.182Z,4.20
2018-03-20T16:35:50.445Z,8.33
2018-03-20T16:38:17.460Z,5.03
2018-03-20T16:40:43.914Z,5.83
2018-03-20T16:43:11.775Z,6.10
2018-03-20T16:45:38.041Z,3.93
2018-03-20T16:48:05.294Z,3.27
2018-03-20T16:50:31.527Z,5.20
2018-03-20T16:52:58.158Z,5.67
2018-03-20T16:55:25.281Z,4.77
2018-03-20T16:57:53.095Z,5.17
2018-03-20T17:00:19.339Z,3.77
2018-03-20T17:02:47.310Z,4.53
2018-03-20T17:05:15.302Z,5.00
2018-03-20T17:07:41.644Z,3.97
2018-03-20T17:10:07.938Z,5.80
2018-03-20T17:12:34.242Z,2.87
2018-03-20T17:15:00.493Z,2.50
2018-03-20T17:17:26.829Z,2.80
2018-03-20T17:19:53.548Z,6.77
2018-03-20T17:22:19.853Z,4.77
2018-03-20T17:24:46.845Z,6.47
2018-03-20T17:27:13.309Z,11.57
2018-03-20T17:29:39.586Z,6.10
2018-03-20T17:32:06.677Z,4.50
2018-03-20T17:34:32.994Z,2.50
2018-03-20T17:36:59.205Z,2.57
2018-03-20T17:39:25.401Z,2.83
2018-03-20T17:41:51.723Z,5.87
2018-03-20T17:44:18.642Z,7.77
2018-03-20T17:46:44.907Z,3.43
2018-03-20T17:49:11.844Z,3.93
2018-03-20T17:51:38.881Z,4.93
2018-03-20T17:54:05.476Z,4.40
2018-03-20T17:56:31.740Z,5.05
2018-03-20T17:58:58.318Z,4.93
2018-03-20T18:01:24.675Z,3.43
2018-03-20T18:03:50.900Z,6.23
2018-03-20T18:06:17.102Z,4.83
2018-03-20T18:08:44.246Z,6.13
2018-03-20T18:11:12.383Z,10.53
2018-03-20T18:13:38.697Z,6.60
2018-03-20T18:16:05.244Z,4.43
2018-03-20T18:18:31.541Z,7.57
2018-03-20T18:20:57.888Z,3.50
2018-03-20T18:23:24.186Z,5.33
2018-03-20T18:25:51.289Z,5.03
2018-03-20T18:28:17.572Z,5.50
2018-03-20T18:30:43.857Z,5.00
2018-03-20T18:33:10.113Z,5.20
2018-03-20T18:35:36.472Z,8.07
2018-03-20T18:38:02.765Z,5.57
2018-03-20T18:40:30.757Z,6.77
2018-03-20T18:42:57.714Z,7.00
2018-03-20T18:45:23.984Z,8.98
2018-03-20T18:47:50.272Z,7.40
2018-03-20T18:50:16.601Z,11.02
2018-03-20T18:52:43.614Z,9.13
2018-03-20T18:55:10.758Z,7.70
2018-03-20T18:57:37.883Z,7.07
2018-03-20T19:00:04.906Z,6.03
2018-03-20T19:02:31.298Z,7.25
2018-03-20T19:04:57.514Z,7.07
2018-03-20T19:07:24.668Z,7.53
2018-03-20T19:09:51.820Z,12.40
2018-03-20T19:12:18.037Z,7.22
2018-03-20T19:14:44.368Z,8.43
2018-03-20T19:17:10.665Z,8.52
2018-03-20T19:19:36.929Z,6.75
2018-03-20T19:22:03.484Z,7.50
2018-03-20T19:24:29.707Z,10.23
2018-03-20T19:26:56.110Z,7.20
2018-03-20T19:29:22.455Z,12.10
2018-03-20T19:31:48.702Z,7.80
2018-03-20T19:34:14.964Z,12.40
2018-03-20T19:36:42.920Z,10.38
2018-03-20T19:39:10.031Z,8.00
2018-03-20T19:41:36.253Z,8.23
2018-03-20T19:44:02.648Z,7.22
2018-03-20T19:46:28.925Z,7.87
2018-03-20T19:48:56.275Z,9.07
2018-03-20T19:51:22.712Z,6.95
2018-03-20T19:53:48.936Z,8.13
2018-03-20T19:56:15.171Z,10.98
2018-03-20T19:58:41.404Z,10.07
2018-03-20T20:01:07.623Z,6.78
2018-03-20T20:03:33.924Z,5.15
2018-03-20T20:06:00.209Z,5.35
2018-03-20T20:08:26.504Z,7.15
2018-03-20T20:10:52.747Z,8.82
2018-03-20T20:13:18.967Z,9.27
2018-03-20T20:15:45.614Z,7.70
2018-03-20T20:18:14.740Z,6.97
2018-03-20T20:20:41.252Z,11.27
2018-03-20T20:23:08.268Z,7.70
2018-03-20T20:25:35.467Z,7.65
2018-03-20T20:28:02.623Z,4.85
2018-03-20T20:30:29.739Z,5.22
2018-03-20T20:32:56.216Z,7.00
2018-03-20T20:35:23.389Z,6.95
2018-03-20T20:37:49.635Z,8.02
2018-03-20T20:40:16.281Z,7.47
2018-03-20T20:42:43.193Z,8.15
2018-03-20T20:45:09.425Z,6.65
2018-03-20T20:47:37.277Z,9.63
2018-03-20T20:50:03.520Z,9.05
2018-03-20T20:52:30.499Z,6.40
2018-03-20T20:54:56.740Z,6.53
2018-03-20T20:57:23.788Z,4.85
2018-03-20T20:59:50.035Z,9.25
2018-03-20T21:02:16.319Z,8.13
2018-03-20T21:04:42.573Z,6.55
2018-03-20T21:07:08.809Z,9.05
2018-03-20T21:09:35.051Z,6.78
2018-03-20T21:12:01.920Z,6.20
2018-03-20T21:14:28.130Z,6.07
2018-03-20T21:16:54.393Z,5.47
2018-03-20T21:19:21.388Z,9.02
2018-03-20T21:21:47.721Z,5.28
2018-03-20T21:24:14.653Z,7.70
2018-03-20T21:26:40.896Z,12.43
2018-03-20T21:29:08.003Z,8.95
2018-03-20T21:31:35.003Z,8.57
2018-03-20T21:34:01.731Z,8.70
2018-03-20T21:36:27.943Z,8.48
2018-03-20T21:38:54.199Z,7.15
2018-03-20T21:41:20.399Z,7.95
2018-03-20T21:43:46.578Z,11.20
2018-03-20T21:46:13.702Z,6.22
2018-03-20T21:48:39.921Z,9.30
2018-03-20T21:51:06.145Z,11.07
2018-03-20T21:53:32.338Z,7.32
2018-03-20T21:55:58.975Z,9.45
2018-03-20T21:58:26.525Z,7.28
2018-03-20T22:00:53.400Z,9.20
2018-03-20T22:03:19.655Z,8.93
2018-03-20T22:05:45.906Z,6.12
2018-03-20T22:08:12.877Z,7.00
2018-03-20T22:10:39.851Z,7.85
2018-03-20T22:13:06.028Z,9.50
2018-03-20T22:15:32.247Z,9.88
2018-03-20T22:17:58.480Z,11.43
2018-03-20T22:20:24.709Z,12.20
2018-03-20T22:22:51.785Z,10.45
2018-03-20T22:25:18.121Z,8.80
2018-03-20T22:27:45.064Z,8.10
2018-03-20T22:30:12.687Z,9.88
2018-03-20T22:32:38.976Z,9.05
2018-03-20T22:35:06.229Z,5.47
2018-03-20T22:37:32.479Z,6.87
2018-03-20T22:39:58.708Z,6.95
2018-03-20T22:42:24.987Z,13.02
2018-03-20T22:44:51.185Z,9.73
2018-03-20T22:47:18.340Z,13.93
2018-03-20T22:49:44.570Z,5.65
2018-03-20T22:52:11.400Z,8.38
2018-03-20T22:54:37.558Z,8.02
2018-03-20T22:57:03.819Z,6.75
2018-03-20T22:59:30.926Z,8.50
2018-03-20T23:01:57.158Z,11.43
2018-03-20T23:04:24.207Z,5.30
2018-03-20T23:06:50.402Z,6.50
2018-03-20T23:09:16.673Z,5.37
2018-03-20T23:11:42.904Z,4.25
2018-03-20T23:14:10.052Z,5.37
2018-03-20T23:16:36.263Z,4.72
2018-03-20T23:19:02.494Z,5.90
2018-03-20T23:21:28.704Z,5.70
2018-03-20T23:23:54.971Z,5.90
2018-03-20T23:26:22.972Z,8.70
2018-03-20T23:28:49.922Z,6.05
2018-03-20T23:31:16.838Z,3.95
2018-03-20T23:33:43.053Z,5.65
2018-03-20T23:36:09.235Z,10.80
2018-03-20T23:38:35.462Z,6.55
2018-03-20T23:41:02.463Z,6.72
2018-03-20T23:43:29.633Z,6.00
2018-03-20T23:45:55.883Z,8.10
2018-03-20T23:48:22.857Z,8.45
2018-03-20T23:50:49.069Z,5.50
2018-03-20T23:53:15.299Z,4.55
2018-03-20T23:55:41.540Z,5.15
2018-03-20T23:58:07.695Z,4.05
